createdAt,value
2019-04-25T00:01:21.563Z,34.37
2019-04-25T00:03:53.469Z,34.63
2019-04-25T00:06:26.127Z,35.01
2019-04-25T00:08:57.609Z,35.58
2019-04-25T00:11:29.258Z,35.64
2019-04-25T00:14:01.805Z,37.17
2019-04-25T00:16:35.128Z,39.33
2019-04-25T00:19:06.853Z,41.96
2019-04-25T00:21:52.138Z,46.61
2019-04-25T00:24:27.987Z,47.50
2019-04-25T00:26:59.573Z,46.69
2019-04-25T00:29:31.856Z,43.36
2019-04-25T00:32:03.595Z,41.32
2019-04-25T00:34:35.368Z,40.42
2019-04-25T00:37:07.111Z,45.51
2019-04-25T00:39:38.797Z,46.92
2019-04-25T00:42:10.260Z,46.71
2019-04-25T00:44:45.942Z,41.50
2019-04-25T00:47:17.651Z,41.79
2019-04-25T00:49:52.099Z,40.83
2019-04-25T00:52:23.546Z,38.49
2019-04-25T00:54:57.067Z,38.67
2019-04-25T00:57:29.683Z,38.75
2019-04-25T01:00:11.751Z,37.87
2019-04-25T01:02:53.207Z,37.77
2019-04-25T01:05:24.633Z,37.70
2019-04-25T01:07:56.027Z,37.48
2019-04-25T01:10:27.576Z,37.31
2019-04-25T01:12:59.359Z,37.11
2019-04-25T01:15:31.423Z,37.32
2019-04-25T01:18:03.218Z,37.62
2019-04-25T01:20:34.742Z,38.26
2019-04-25T01:23:06.372Z,38.47
2019-04-25T01:25:42.555Z,38.17
2019-04-25T01:28:13.234Z,38.41
2019-04-25T01:30:46.285Z,38.45
2019-04-25T01:33:17.901Z,39.00
2019-04-25T01:35:54.893Z,38.73
2019-04-25T01:38:28.931Z,38.21
2019-04-25T01:41:04.990Z,38.21
2019-04-25T01:43:47.388Z,38.19
2019-04-25T01:46:20.247Z,38.43
2019-04-25T01:48:54.214Z,38.88
2019-04-25T01:51:25.713Z,39.25
2019-04-25T01:53:57.307Z,39.71
2019-04-25T01:56:28.794Z,40.11
2019-04-25T01:59:00.429Z,41.56
2019-04-25T02:01:34.007Z,45.22
2019-04-25T02:04:05.618Z,41.22
2019-04-25T02:06:37.302Z,41.40
2019-04-25T02:09:10.985Z,41.78
2019-04-25T02:11:46.879Z,42.88
2019-04-25T02:14:20.433Z,40.52
2019-04-25T02:16:53.183Z,40.14
2019-04-25T02:19:25.315Z,39.36
2019-04-25T02:21:57.782Z,39.17
2019-04-25T02:24:29.476Z,39.19
2019-04-25T02:27:04.598Z,39.29
2019-04-25T02:29:36.710Z,39.25
2019-04-25T02:32:09.181Z,39.34
2019-04-25T02:34:40.826Z,39.41
2019-04-25T02:37:14.664Z,39.47
2019-04-25T02:39:45.381Z,39.49
2019-04-25T02:42:17.149Z,39.63
2019-04-25T02:44:56.122Z,39.77
2019-04-25T02:47:28.445Z,39.90
2019-04-25T02:50:09.159Z,40.02
2019-04-25T02:52:44.237Z,40.25
2019-04-25T02:55:29.520Z,40.46
2019-04-25T02:57:48.863Z,40.37
2019-04-25T03:00:24.911Z,40.47
2019-04-25T03:02:57.936Z,40.55
2019-04-25T03:05:30.462Z,40.69
2019-04-25T03:08:05.191Z,40.76
2019-04-25T03:10:35.069Z,41.00
2019-04-25T03:13:10.302Z,41.27
2019-04-25T03:15:39.585Z,41.50
2019-04-25T03:18:14.618Z,41.51
2019-04-25T03:20:54.739Z,41.44
2019-04-25T03:23:34.970Z,41.58
2019-04-25T03:26:09.211Z,41.78
2019-04-25T03:28:40.655Z,41.77
2019-04-25T03:31:18.746Z,41.83
2019-04-25T03:33:46.223Z,41.76
2019-04-25T03:36:19.036Z,41.81
2019-04-25T03:38:50.558Z,42.00
2019-04-25T03:41:22.241Z,42.18
2019-04-25T03:43:54.807Z,42.28
2019-04-25T03:46:27.935Z,42.41
2019-04-25T03:48:59.421Z,42.51
2019-04-25T03:51:30.976Z,42.70
2019-04-25T03:54:04.203Z,42.73
2019-04-25T03:56:36.079Z,42.59
2019-04-25T03:59:08.467Z,42.95
2019-04-25T04:01:40.160Z,42.97
2019-04-25T04:04:14.374Z,43.08
2019-04-25T04:06:45.926Z,43.24
2019-04-25T04:09:17.343Z,43.33
2019-04-25T04:11:48.730Z,43.53
2019-04-25T04:14:20.312Z,43.52
2019-04-25T04:17:16.073Z,43.54
2019-04-25T04:19:55.220Z,43.72
2019-04-25T04:22:37.069Z,43.77
2019-04-25T04:25:10.400Z,43.94
2019-04-25T04:27:41.822Z,44.04
2019-04-25T04:30:14.460Z,44.37
2019-04-25T04:32:46.879Z,44.75
2019-04-25T04:35:18.273Z,44.71
2019-04-25T04:37:49.845Z,44.46
2019-04-25T04:40:21.339Z,44.68
2019-04-25T04:42:53.966Z,44.65
2019-04-25T04:45:26.586Z,44.58
2019-04-25T04:47:58.228Z,44.16
2019-04-25T04:50:29.743Z,44.38
2019-04-25T04:53:03.843Z,43.88
2019-04-25T04:55:35.958Z,44.46
2019-04-25T04:58:07.427Z,44.30
2019-04-25T05:00:38.962Z,43.93
2019-04-25T05:03:17.872Z,43.75
2019-04-25T05:05:51.178Z,44.04
2019-04-25T05:08:30.091Z,43.89
2019-04-25T05:11:01.605Z,43.77
2019-04-25T05:13:34.230Z,43.51
2019-04-25T05:16:05.751Z,43.55
2019-04-25T05:18:39.867Z,43.62
2019-04-25T05:21:10.447Z,43.51
2019-04-25T05:23:41.920Z,43.43
2019-04-25T05:26:15.107Z,43.63
2019-04-25T05:28:46.769Z,44.05
2019-04-25T05:31:19.966Z,43.83
2019-04-25T05:33:51.413Z,43.94
2019-04-25T05:36:24.916Z,43.72
2019-04-25T05:38:56.535Z,43.95
2019-04-25T05:41:29.650Z,43.67
2019-04-25T05:44:01.163Z,43.74
2019-04-25T05:46:34.047Z,44.25
2019-04-25T05:49:05.848Z,44.02
2019-04-25T05:51:37.317Z,44.04
2019-04-25T05:54:09.825Z,43.96
2019-04-25T05:56:43.812Z,43.66
2019-04-25T05:59:15.285Z,43.78
2019-04-25T06:01:46.796Z,43.61
2019-04-25T06:04:19.051Z,43.74
2019-04-25T06:06:50.535Z,43.60
2019-04-25T06:09:26.583Z,43.52
2019-04-25T06:12:05.467Z,43.50
2019-04-25T06:14:36.844Z,43.33
2019-04-25T06:17:13.714Z,43.22
2019-04-25T06:19:46.955Z,42.77
2019-04-25T06:22:24.371Z,42.93
2019-04-25T06:24:57.833Z,42.25
2019-04-25T06:27:35.227Z,42.06
2019-04-25T06:30:10.446Z,41.44
2019-04-25T06:32:43.642Z,41.34
2019-04-25T06:35:15.331Z,41.94
2019-04-25T06:37:46.797Z,41.03
2019-04-25T06:40:19.668Z,41.09
2019-04-25T06:42:53.601Z,41.14
2019-04-25T06:45:28.137Z,41.09
2019-04-25T06:48:04.174Z,40.96
2019-04-25T06:50:35.792Z,41.08
2019-04-25T06:53:07.470Z,40.61
2019-04-25T06:55:38.820Z,40.59
2019-04-25T06:58:13.990Z,39.93
2019-04-25T07:00:57.190Z,40.24
2019-04-25T07:03:18.167Z,39.91
2019-04-25T07:05:53.615Z,39.64
2019-04-25T07:08:26.671Z,39.54
2019-04-25T07:10:58.362Z,39.84
2019-04-25T07:13:30.468Z,39.55
2019-04-25T07:16:04.780Z,39.18
2019-04-25T07:18:38.573Z,38.95
2019-04-25T07:21:10.114Z,38.95
2019-04-25T07:23:43.238Z,38.54
2019-04-25T07:26:17.103Z,37.94
2019-04-25T07:29:03.282Z,38.05
2019-04-25T07:31:54.014Z,37.65
2019-04-25T07:34:27.462Z,38.13
2019-04-25T07:36:59.022Z,37.74
2019-04-25T07:39:30.563Z,37.83
2019-04-25T07:42:02.061Z,37.63
2019-04-25T07:44:46.130Z,37.00
2019-04-25T07:47:07.788Z,37.23
2019-04-25T07:49:39.273Z,36.66
2019-04-25T07:52:11.660Z,36.54
2019-04-25T07:54:44.101Z,36.22
2019-04-25T07:57:15.673Z,35.89
2019-04-25T07:59:47.048Z,35.86
2019-04-25T08:02:18.601Z,36.01
2019-04-25T08:04:50.093Z,35.76
2019-04-25T08:07:21.605Z,35.47
2019-04-25T08:09:54.178Z,35.34
2019-04-25T08:12:25.714Z,35.29
2019-04-25T08:14:58.989Z,35.14
2019-04-25T08:17:47.517Z,35.20
2019-04-25T08:20:20.670Z,35.03
2019-04-25T08:22:58.552Z,35.28
2019-04-25T08:25:26.343Z,34.59
2019-04-25T08:27:57.877Z,34.33
2019-04-25T08:30:29.902Z,34.22
2019-04-25T08:33:03.960Z,33.77
2019-04-25T08:35:36.549Z,33.70
2019-04-25T08:38:08.205Z,33.82
2019-04-25T08:40:40.395Z,33.12
2019-04-25T08:43:12.124Z,32.91
2019-04-25T08:45:45.792Z,32.46
2019-04-25T08:48:23.449Z,32.56
2019-04-25T08:51:06.274Z,32.23
2019-04-25T08:53:44.113Z,31.69
2019-04-25T08:56:17.069Z,32.19
2019-04-25T08:59:06.189Z,32.04
2019-04-25T09:01:48.870Z,31.67
2019-04-25T09:04:21.937Z,31.52
2019-04-25T09:06:53.732Z,31.27
2019-04-25T09:09:25.458Z,30.74
2019-04-25T09:12:05.661Z,30.92
2019-04-25T09:14:37.752Z,31.01
2019-04-25T09:17:09.611Z,30.53
2019-04-25T09:19:42.007Z,30.35
2019-04-25T09:22:15.149Z,29.92
2019-04-25T09:24:46.642Z,29.38
2019-04-25T09:27:18.141Z,29.92
2019-04-25T09:29:49.546Z,28.98
2019-04-25T09:32:21.089Z,29.05
2019-04-25T09:34:54.062Z,28.75
2019-04-25T09:37:26.672Z,28.75
2019-04-25T09:39:59.810Z,28.24
2019-04-25T09:42:31.240Z,28.10
2019-04-25T09:45:10.208Z,27.62
2019-04-25T09:47:43.803Z,27.21
2019-04-25T09:50:17.892Z,27.12
2019-04-25T09:52:49.771Z,27.39
2019-04-25T09:55:36.012Z,26.67
2019-04-25T09:58:09.302Z,26.69
2019-04-25T10:00:43.622Z,26.28
2019-04-25T10:03:16.335Z,26.57
2019-04-25T10:05:47.778Z,25.34
2019-04-25T10:08:19.289Z,24.97
2019-04-25T10:10:50.728Z,24.33
2019-04-25T10:13:25.235Z,23.87
2019-04-25T10:16:08.578Z,24.20
2019-04-25T10:18:41.387Z,24.59
2019-04-25T10:21:14.288Z,24.77
2019-04-25T10:23:46.811Z,25.14
2019-04-25T10:26:21.900Z,24.45
2019-04-25T10:29:04.804Z,24.69
2019-04-25T10:31:36.457Z,24.68
2019-04-25T10:34:07.825Z,24.87
2019-04-25T10:36:41.277Z,24.53
2019-04-25T10:39:14.977Z,25.09
2019-04-25T10:41:47.096Z,25.08
2019-04-25T10:44:21.000Z,25.02
2019-04-25T10:46:54.446Z,26.11
2019-04-25T10:49:25.725Z,25.02
2019-04-25T10:51:57.730Z,25.10
2019-04-25T10:54:29.219Z,24.37
2019-04-25T10:57:00.647Z,24.17
2019-04-25T10:59:32.408Z,24.24
2019-04-25T11:02:04.064Z,24.15
2019-04-25T11:04:37.148Z,24.10
2019-04-25T11:07:08.711Z,24.57
2019-04-25T11:09:44.965Z,23.93
2019-04-25T11:12:15.540Z,24.35
2019-04-25T11:14:47.266Z,24.24
2019-04-25T11:17:19.159Z,24.61
2019-04-25T11:19:51.176Z,24.59
2019-04-25T11:22:23.987Z,24.26
2019-04-25T11:24:55.608Z,24.15
2019-04-25T11:27:27.502Z,24.29
2019-04-25T11:30:09.223Z,25.95
2019-04-25T11:32:34.060Z,24.90
2019-04-25T11:35:06.527Z,25.03
2019-04-25T11:37:38.287Z,24.53
2019-04-25T11:40:11.771Z,24.62
2019-04-25T11:42:45.915Z,24.70
2019-04-25T11:45:16.933Z,24.91
2019-04-25T11:47:48.496Z,24.28
2019-04-25T11:50:20.097Z,24.42
2019-04-25T11:52:52.545Z,24.53
2019-04-25T11:55:24.668Z,26.20
2019-04-25T11:57:56.134Z,24.72
2019-04-25T12:00:33.789Z,25.21
2019-04-25T12:03:06.779Z,25.38
2019-04-25T12:05:38.301Z,24.55
2019-04-25T12:08:10.439Z,24.43
2019-04-25T12:10:43.132Z,24.39
2019-04-25T12:13:15.495Z,24.26
2019-04-25T12:15:47.125Z,24.66
2019-04-25T12:18:18.843Z,25.52
2019-04-25T12:20:51.012Z,25.73
2019-04-25T12:23:23.398Z,25.70
2019-04-25T12:25:55.310Z,25.34
2019-04-25T12:28:26.797Z,26.17
2019-04-25T12:30:58.287Z,25.83
2019-04-25T12:33:29.878Z,26.52
2019-04-25T12:36:02.094Z,25.66
2019-04-25T12:38:35.467Z,25.95
2019-04-25T12:41:06.795Z,25.56
2019-04-25T12:43:39.925Z,25.07
2019-04-25T12:46:15.767Z,25.28
2019-04-25T12:48:47.673Z,24.98
2019-04-25T12:51:19.141Z,24.78
2019-04-25T12:53:51.343Z,25.11
2019-04-25T12:56:24.647Z,23.90
2019-04-25T12:58:56.273Z,23.97
2019-04-25T13:01:27.760Z,24.00
2019-04-25T13:03:59.166Z,23.65
2019-04-25T13:06:30.637Z,24.32
2019-04-25T13:09:01.959Z,23.51
2019-04-25T13:11:34.960Z,23.68
2019-04-25T13:14:06.477Z,23.48
2019-04-25T13:16:37.895Z,24.37
2019-04-25T13:19:20.364Z,24.74
2019-04-25T13:21:43.286Z,23.81
2019-04-25T13:24:17.238Z,24.21
2019-04-25T13:26:59.194Z,24.31
2019-04-25T13:29:41.328Z,24.40
2019-04-25T13:32:26.843Z,24.35
2019-04-25T13:35:00.945Z,24.18
2019-04-25T13:37:34.152Z,24.36
2019-04-25T13:40:08.206Z,24.35
2019-04-25T13:42:39.734Z,24.46
2019-04-25T13:45:11.214Z,24.85
2019-04-25T13:47:42.671Z,24.84
2019-04-25T13:50:14.691Z,24.78
2019-04-25T13:52:46.287Z,24.50
2019-04-25T13:55:17.753Z,24.50
2019-04-25T13:57:49.138Z,24.40
2019-04-25T14:00:23.243Z,24.94
2019-04-25T14:02:55.693Z,24.55
2019-04-25T14:05:28.900Z,24.41
2019-04-25T14:08:00.436Z,24.63
2019-04-25T14:10:32.473Z,24.37
2019-04-25T14:13:06.480Z,24.37
2019-04-25T14:15:40.470Z,24.20
2019-04-25T14:18:19.302Z,24.15
2019-04-25T14:20:55.290Z,24.18
2019-04-25T14:23:27.427Z,24.08
2019-04-25T14:25:58.979Z,24.01
2019-04-25T14:28:31.819Z,24.55
2019-04-25T14:31:04.953Z,24.33
2019-04-25T14:33:36.405Z,24.67
2019-04-25T14:36:08.195Z,24.62
2019-04-25T14:38:39.824Z,24.73
2019-04-25T14:41:12.507Z,24.59
2019-04-25T14:43:46.348Z,24.62
2019-04-25T14:46:17.339Z,24.53
2019-04-25T14:48:50.299Z,24.63
2019-04-25T14:51:22.978Z,24.06
2019-04-25T14:53:55.320Z,24.37
2019-04-25T14:56:28.598Z,24.29
2019-04-25T14:59:00.370Z,24.99
2019-04-25T15:01:44.067Z,25.58
2019-04-25T15:04:05.436Z,25.12
2019-04-25T15:06:38.716Z,24.62
2019-04-25T15:09:10.476Z,25.07
2019-04-25T15:11:43.746Z,24.87
2019-04-25T15:14:17.922Z,24.74
2019-04-25T15:16:49.420Z,25.17
2019-04-25T15:19:21.102Z,25.15
2019-04-25T15:21:56.322Z,24.69
2019-04-25T15:24:27.792Z,25.09
2019-04-25T15:26:59.303Z,25.46
2019-04-25T15:29:30.878Z,25.09
2019-04-25T15:32:02.375Z,25.60
2019-04-25T15:34:35.995Z,25.71
2019-04-25T15:37:09.268Z,25.92
2019-04-25T15:39:42.526Z,26.03
2019-04-25T15:42:19.384Z,26.12
2019-04-25T15:44:55.210Z,26.32
2019-04-25T15:47:29.847Z,26.39
2019-04-25T15:50:01.480Z,26.48
2019-04-25T15:52:34.527Z,26.71
2019-04-25T15:55:07.966Z,26.75
2019-04-25T15:57:39.646Z,26.75
2019-04-25T16:00:12.839Z,26.77
2019-04-25T16:02:45.441Z,26.73
2019-04-25T16:05:17.086Z,26.51
2019-04-25T16:07:49.516Z,26.27
2019-04-25T16:10:22.500Z,26.19
2019-04-25T16:12:53.873Z,26.44
2019-04-25T16:15:25.437Z,26.29
2019-04-25T16:17:57.305Z,26.08
2019-04-25T16:20:29.570Z,25.96
2019-04-25T16:23:01.133Z,25.78
2019-04-25T16:25:33.927Z,25.90
2019-04-25T16:28:05.386Z,26.02
2019-04-25T16:30:36.989Z,26.36
2019-04-25T16:33:11.827Z,26.62
2019-04-25T16:35:43.369Z,26.76
2019-04-25T16:38:14.831Z,26.68
2019-04-25T16:40:46.331Z,27.03
2019-04-25T16:43:20.411Z,27.05
2019-04-25T16:45:52.294Z,27.10
2019-04-25T16:48:23.828Z,27.61
2019-04-25T16:50:55.576Z,27.74
2019-04-25T16:53:27.096Z,28.09
2019-04-25T16:55:58.614Z,28.00
2019-04-25T16:58:30.910Z,28.27
2019-04-25T17:01:08.225Z,28.10
2019-04-25T17:03:41.376Z,27.86
2019-04-25T17:06:13.174Z,27.68
2019-04-25T17:08:45.056Z,27.91
2019-04-25T17:11:17.075Z,28.02
2019-04-25T17:13:50.499Z,29.24
2019-04-25T17:16:23.696Z,30.20
2019-04-25T17:18:56.823Z,29.68
2019-04-25T17:21:28.389Z,29.65
2019-04-25T17:24:01.772Z,29.84
2019-04-25T17:26:33.564Z,29.60
2019-04-25T17:29:07.019Z,29.95
2019-04-25T17:31:56.158Z,30.52
2019-04-25T17:34:47.302Z,30.89
2019-04-25T17:37:26.153Z,31.42
2019-04-25T17:40:05.099Z,31.67
2019-04-25T17:42:36.810Z,32.65
2019-04-25T17:45:10.086Z,32.66
2019-04-25T17:47:52.324Z,32.38
2019-04-25T17:50:14.948Z,33.32
2019-04-25T17:52:50.297Z,33.17
2019-04-25T17:55:21.933Z,33.35
2019-04-25T17:57:53.922Z,33.00
2019-04-25T18:00:30.209Z,33.23
2019-04-25T18:03:08.843Z,33.26
2019-04-25T18:05:42.383Z,34.21
2019-04-25T18:08:14.731Z,33.36
2019-04-25T18:10:51.627Z,33.10
2019-04-25T18:13:24.182Z,32.89
2019-04-25T18:15:59.706Z,32.63
2019-04-25T18:18:54.610Z,32.45
2019-04-25T18:21:25.531Z,32.29
2019-04-25T18:24:01.325Z,32.70
2019-04-25T18:26:43.542Z,32.50
2019-04-25T18:29:16.508Z,32.64
2019-04-25T18:31:48.454Z,33.01
2019-04-25T18:34:21.699Z,32.78
2019-04-25T18:37:03.839Z,32.80
2019-04-25T18:39:37.745Z,33.25
2019-04-25T18:42:15.284Z,33.53
2019-04-25T18:44:46.781Z,33.38
2019-04-25T18:47:18.566Z,33.38
2019-04-25T18:49:50.128Z,33.27
2019-04-25T18:52:39.611Z,33.12
2019-04-25T18:55:12.838Z,33.02
2019-04-25T18:57:51.998Z,32.92
2019-04-25T19:00:41.646Z,33.24
2019-04-25T19:03:31.901Z,33.27
2019-04-25T19:06:05.400Z,38.01
2019-04-25T19:08:48.019Z,40.49
2019-04-25T19:11:19.804Z,41.30
2019-04-25T19:13:51.750Z,42.36
2019-04-25T19:16:23.291Z,43.84
2019-04-25T19:18:54.779Z,43.53
2019-04-25T19:21:26.494Z,43.46
2019-04-25T19:23:59.065Z,44.30
2019-04-25T19:26:30.564Z,42.49
2019-04-25T19:29:03.116Z,39.80
2019-04-25T19:31:35.840Z,39.61
2019-04-25T19:34:07.351Z,37.94
2019-04-25T19:36:38.961Z,37.36
2019-04-25T19:39:10.744Z,36.77
2019-04-25T19:41:45.038Z,35.89
2019-04-25T19:44:23.370Z,35.65
2019-04-25T19:46:55.019Z,35.50
2019-04-25T19:49:26.702Z,36.04
2019-04-25T19:51:58.304Z,35.29
2019-04-25T19:54:30.362Z,35.24
2019-04-25T19:57:01.919Z,35.46
2019-04-25T19:59:33.530Z,35.52
2019-04-25T20:02:10.206Z,38.99
2019-04-25T20:04:51.140Z,37.96
2019-04-25T20:07:24.669Z,37.21
2019-04-25T20:10:05.675Z,40.26
2019-04-25T20:12:50.541Z,36.10
2019-04-25T20:15:21.386Z,35.38
2019-04-25T20:17:54.285Z,35.73
2019-04-25T20:20:31.805Z,39.12
2019-04-25T20:23:04.537Z,35.02
2019-04-25T20:25:37.288Z,34.28
2019-04-25T20:28:09.233Z,40.84
2019-04-25T20:30:42.416Z,42.58
2019-04-25T20:33:14.317Z,44.83
2019-04-25T20:35:47.457Z,44.03
2019-04-25T20:38:22.870Z,42.17
2019-04-25T20:40:55.991Z,42.20
2019-04-25T20:43:28.074Z,43.55
2019-04-25T20:46:04.031Z,42.77
2019-04-25T20:48:36.196Z,43.06
2019-04-25T20:51:08.265Z,42.60
2019-04-25T20:53:39.711Z,42.90
2019-04-25T20:56:12.170Z,42.98
2019-04-25T20:58:44.449Z,42.71
2019-04-25T21:01:16.275Z,41.80
2019-04-25T21:03:48.614Z,41.25
2019-04-25T21:06:29.209Z,39.78
2019-04-25T21:09:00.686Z,39.57
2019-04-25T21:11:34.191Z,38.94
2019-04-25T21:14:07.939Z,38.15
2019-04-25T21:16:56.488Z,38.62
2019-04-25T21:19:32.530Z,39.87
2019-04-25T21:22:05.470Z,40.84
2019-04-25T21:24:37.620Z,42.06
2019-04-25T21:41:51.437Z,38.97
2019-04-25T21:44:24.354Z,38.58
2019-04-25T21:46:56.331Z,38.69
2019-04-25T21:49:28.480Z,37.66
2019-04-25T21:52:01.010Z,37.13
2019-04-25T21:54:32.894Z,36.64
2019-04-25T21:57:04.577Z,36.85
2019-04-25T21:59:36.357Z,40.41
2019-04-25T22:02:08.333Z,37.64
2019-04-25T22:04:41.417Z,37.37
2019-04-25T22:07:13.644Z,39.27
2019-04-25T22:09:45.580Z,37.25
2019-04-25T22:12:17.849Z,36.02
2019-04-25T22:14:49.407Z,35.35
2019-04-25T22:17:21.017Z,35.18
2019-04-25T22:19:52.839Z,35.00
2019-04-25T22:22:24.765Z,34.83
2019-04-25T22:24:57.279Z,34.79
2019-04-25T22:27:32.724Z,34.90
2019-04-25T22:30:08.456Z,34.92
2019-04-25T22:33:00.157Z,34.91
2019-04-25T22:35:33.408Z,34.90
2019-04-25T22:38:06.362Z,35.06
2019-04-25T22:40:39.312Z,35.06
2019-04-25T22:43:12.044Z,35.24
2019-04-25T22:45:45.009Z,35.16
2019-04-25T22:48:18.400Z,35.12
2019-04-25T22:50:50.624Z,35.17
2019-04-25T22:53:24.828Z,35.28
2019-04-25T22:55:55.358Z,35.44
2019-04-25T22:58:26.821Z,35.38
2019-04-25T23:00:58.648Z,35.50
2019-04-25T23:03:31.954Z,35.59
2019-04-25T23:06:04.148Z,35.77
2019-04-25T23:08:36.071Z,35.78
2019-04-25T23:11:08.432Z,35.84
2019-04-25T23:13:39.910Z,35.91
2019-04-25T23:16:11.700Z,35.96
2019-04-25T23:18:42.986Z,36.10
2019-04-25T23:21:14.543Z,36.11
2019-04-25T23:23:46.198Z,36.14
2019-04-25T23:26:19.242Z,36.24
2019-04-25T23:28:52.680Z,36.32
2019-04-25T23:31:32.038Z,36.47
2019-04-25T23:34:04.502Z,36.55
2019-04-25T23:36:36.903Z,36.69
2019-04-25T23:39:09.404Z,36.73
2019-04-25T23:41:41.423Z,36.78
2019-04-25T23:44:12.852Z,36.82
2019-04-25T23:46:46.615Z,36.93
2019-04-25T23:49:18.009Z,37.06
2019-04-25T23:51:50.665Z,37.13
2019-04-25T23:54:22.085Z,37.18
2019-04-25T23:56:55.611Z,37.26
2019-04-25T23:59:27.200Z,37.44
